Pink Coral — 9HPY9 — position and weather

sailwx.info

Track history (hours):
 
Tides and Currents Weather Stations Pressure Air Temp Water Temp Dewpoint Dewpoint Depression Visibility Wind Speed Wind Dir Waves Ship Positions

Pink Coral

Last reported at 2015-Jul-04 19:12 UTC. Time now 2015-Jul-05 07:49 UTC.
Position N 31°12' E 029°44'.

Length 183 m; draft 10 m.

Type: Ship (hazmat cat A). MMSI: 249344000.

Date/timePositionNaut miles runAvg speedWind from/ knotsBaromVisibWave heightAir tempDewpointWater temp
2015-Jul-04 19:12N 31°12' E 029°44'0 0.0
2015-Jul-04 18:33N 31°12' E 029°44'  
2015-Jun-27 06:05N 31°22' E 029°20'2013.1
2015-Jun-27 04:33N 31°30' E 028°58'4012.4
2015-Jun-27 01:20N 31°44' E 028°15'1112.1
2015-Jun-27 00:27N 31°48' E 028°03'7111.9
2015-Jun-26 18:31N 32°16' E 026°46'24913.1
2015-Jun-25 23:32N 33°50' E 022°11'1413.2
2015-Jun-25 22:31N 33°55' E 021°56'3913.1
2015-Jun-25 19:31N 34°10' E 021°11'3113.0
2015-Jun-25 17:06N 34°22' E 020°36'713.1
2015-Jun-25 16:32N 34°25' E 020°28'8213.1
2015-Jun-25 10:18N 34°56' E 018°56'1412.9
2015-Jun-25 09:13N 35°01' E 018°40'912.9
2015-Jun-25 08:33N 35°05' E 018°31'1412.9
2015-Jun-25 07:29N 35°10' E 018°15'1212.9
2015-Jun-25 06:33N 35°15' E 018°02'1313.0
2015-Jun-25 05:33N 35°20' E 017°47'1312.8
2015-Jun-25 04:33N 35°24' E 017°32'1312.8
2015-Jun-25 03:33N 35°29' E 017°18'1512.9
2015-Jun-25 02:24N 35°35' E 017°01'1112.6
2015-Jun-25 01:31N 35°39' E 016°48'1212.6
2015-Jun-25 00:33N 35°44' E 016°35'1312.7
2015-Jun-24 23:33N 35°49' E 016°20'1312.7
2015-Jun-24 22:33N 35°53' E 016°06'1212.3
2015-Jun-24 21:33N 35°58' E 015°51'1312.5
2015-Jun-24 20:31N 36°03' E 015°37'1212.9
2015-Jun-24 19:33N 36°08' E 015°23'  
Track history (hours):
 
Tides and Currents Weather Stations Pressure Air Temp Water Temp Dewpoint Dewpoint Depression Visibility Wind Speed Wind Dir Waves Ship Positions

Pink Coral

Last reported at 2015-Jul-04 19:12 UTC. Time now 2015-Jul-05 07:49 UTC.
Position N 31°12' E 029°44'.

Length 183 m; draft 10 m.

Type: Ship (hazmat cat A). MMSI: 249344000.

Date/timePositionNaut miles runAvg speedWind from/ knotsBaromVisibWave heightAir tempDewpointWater temp
2015-Jul-04 19:12N 31°12' E 029°44'0 0.0
2015-Jul-04 18:33N 31°12' E 029°44'  
2015-Jun-27 06:05N 31°22' E 029°20'2013.1
2015-Jun-27 04:33N 31°30' E 028°58'4012.4
2015-Jun-27 01:20N 31°44' E 028°15'1112.1
2015-Jun-27 00:27N 31°48' E 028°03'7111.9
2015-Jun-26 18:31N 32°16' E 026°46'24913.1
2015-Jun-25 23:32N 33°50' E 022°11'1413.2
2015-Jun-25 22:31N 33°55' E 021°56'3913.1
2015-Jun-25 19:31N 34°10' E 021°11'3113.0
2015-Jun-25 17:06N 34°22' E 020°36'713.1
2015-Jun-25 16:32N 34°25' E 020°28'8213.1
2015-Jun-25 10:18N 34°56' E 018°56'1412.9
2015-Jun-25 09:13N 35°01' E 018°40'912.9
2015-Jun-25 08:33N 35°05' E 018°31'1412.9
2015-Jun-25 07:29N 35°10' E 018°15'1212.9
2015-Jun-25 06:33N 35°15' E 018°02'1313.0
2015-Jun-25 05:33N 35°20' E 017°47'1312.8
2015-Jun-25 04:33N 35°24' E 017°32'1312.8
2015-Jun-25 03:33N 35°29' E 017°18'1512.9
2015-Jun-25 02:24N 35°35' E 017°01'1112.6
2015-Jun-25 01:31N 35°39' E 016°48'1212.6
2015-Jun-25 00:33N 35°44' E 016°35'1312.7
2015-Jun-24 23:33N 35°49' E 016°20'1312.7
2015-Jun-24 22:33N 35°53' E 016°06'1212.3
2015-Jun-24 21:33N 35°58' E 015°51'1312.5
2015-Jun-24 20:31N 36°03' E 015°37'1212.9
2015-Jun-24 19:33N 36°08' E 015°23'  

Dump ship's entire track history